sensor_id;sensor_type;location;lat;lon;timestamp;P1;durP1;ratioP1;P2;durP2;ratioP2
15814;SDS011;8008;50.024;8.172;2023-04-15T03:02:05;5.87;;;2.40;;
15814;SDS011;8008;50.024;8.172;2023-04-15T03:04:36;4.40;;;2.47;;
15814;SDS011;8008;50.024;8.172;2023-04-15T03:07:06;7.37;;;2.40;;
15814;SDS011;8008;50.024;8.172;2023-04-15T03:09:35;6.83;;;2.47;;
15814;SDS011;8008;50.024;8.172;2023-04-15T03:12:05;5.10;;;2.10;;
15814;SDS011;8008;50.024;8.172;2023-04-15T03:14:34;6.03;;;2.23;;
15814;SDS011;8008;50.024;8.172;2023-04-15T03:17:02;3.07;;;2.20;;
15814;SDS011;8008;50.024;8.172;2023-04-15T03:19:33;4.70;;;2.30;;
15814;SDS011;8008;50.024;8.172;2023-04-15T03:22:01;4.17;;;2.13;;
15814;SDS011;8008;50.024;8.172;2023-04-15T03:24:29;5.73;;;2.30;;
15814;SDS011;8008;50.024;8.172;2023-04-15T03:26:57;5.20;;;2.20;;
15814;SDS011;8008;50.024;8.172;2023-04-15T03:29:26;3.70;;;2.23;;
15814;SDS011;8008;50.024;8.172;2023-04-15T03:31:54;3.27;;;2.30;;
15814;SDS011;8008;50.024;8.172;2023-04-15T03:34:22;4.73;;;2.40;;
15814;SDS011;8008;50.024;8.172;2023-04-15T03:36:52;5.90;;;2.40;;
15814;SDS011;8008;50.024;8.172;2023-04-15T03:39:20;4.27;;;2.20;;
15814;SDS011;8008;50.024;8.172;2023-04-15T03:41:48;4.77;;;2.37;;
15814;SDS011;8008;50.024;8.172;2023-04-15T03:44:16;5.97;;;2.40;;
15814;SDS011;8008;50.024;8.172;2023-04-15T03:46:43;5.20;;;2.17;;
15814;SDS011;8008;50.024;8.172;2023-04-15T03:49:12;3.67;;;2.33;;
15814;SDS011;8008;50.024;8.172;2023-04-15T03:51:40;3.07;;;2.10;;
15814;SDS011;8008;50.024;8.172;2023-04-15T03:54:09;5.00;;;2.40;;
15814;SDS011;8008;50.024;8.172;2023-04-15T03:56:38;4.20;;;2.30;;
15814;SDS011;8008;50.024;8.172;2023-04-15T03:59:06;5.73;;;3.27;;
15814;SDS011;8008;50.024;8.172;2023-04-15T04:01:34;6.40;;;3.23;;
15814;SDS011;8008;50.024;8.172;2023-04-15T04:04:02;4.83;;;2.90;;
15814;SDS011;8008;50.024;8.172;2023-04-15T04:06:30;10.00;;;3.47;;
15814;SDS011;8008;50.024;8.172;2023-04-15T04:08:58;4.63;;;2.87;;
15814;SDS011;8008;50.024;8.172;2023-04-15T04:11:28;5.40;;;3.00;;
15814;SDS011;8008;50.024;8.172;2023-04-15T04:13:56;5.23;;;2.37;;
15814;SDS011;8008;50.024;8.172;2023-04-15T04:16:24;5.87;;;2.47;;
15814;SDS011;8008;50.024;8.172;2023-04-15T04:18:52;4.40;;;2.50;;
15814;SDS011;8008;50.024;8.172;2023-04-15T04:21:20;4.63;;;2.20;;
15814;SDS011;8008;50.024;8.172;2023-04-15T04:23:48;4.83;;;2.40;;
15814;SDS011;8008;50.024;8.172;2023-04-15T04:26:17;5.03;;;2.50;;
15814;SDS011;8008;50.024;8.172;2023-04-15T04:28:46;4.37;;;2.33;;
15814;SDS011;8008;50.024;8.172;2023-04-15T04:31:14;4.80;;;2.30;;
15814;SDS011;8008;50.024;8.172;2023-04-15T04:33:42;4.23;;;2.63;;
15814;SDS011;8008;50.024;8.172;2023-04-15T04:36:10;3.90;;;2.37;;
15814;SDS011;8008;50.024;8.172;2023-04-15T04:38:38;5.77;;;2.63;;
15814;SDS011;8008;50.024;8.172;2023-04-15T04:41:06;6.37;;;2.70;;
15814;SDS011;8008;50.024;8.172;2023-04-15T04:43:34;4.53;;;2.70;;
15814;SDS011;8008;50.024;8.172;2023-04-15T04:46:03;7.63;;;3.00;;
15814;SDS011;8008;50.024;8.172;2023-04-15T04:48:31;5.50;;;2.70;;
15814;SDS011;8008;50.024;8.172;2023-04-15T04:50:59;4.20;;;2.90;;
15814;SDS011;8008;50.024;8.172;2023-04-15T04:53:28;6.43;;;3.10;;
15814;SDS011;8008;50.024;8.172;2023-04-15T04:55:56;4.73;;;2.30;;
15814;SDS011;8008;50.024;8.172;2023-04-15T04:58:24;3.67;;;2.13;;
15814;SDS011;8008;50.024;8.172;2023-04-15T05:00:52;3.47;;;2.20;;
15814;SDS011;8008;50.024;8.172;2023-04-15T05:03:21;5.60;;;2.37;;
15814;SDS011;8008;50.024;8.172;2023-04-15T05:05:49;5.20;;;2.73;;
15814;SDS011;8008;50.024;8.172;2023-04-15T05:08:18;5.87;;;2.30;;
15814;SDS011;8008;50.024;8.172;2023-04-15T05:10:45;3.47;;;2.30;;
15814;SDS011;8008;50.024;8.172;2023-04-15T05:13:13;5.70;;;2.70;;
15814;SDS011;8008;50.024;8.172;2023-04-15T05:15:41;5.27;;;2.97;;
15814;SDS011;8008;50.024;8.172;2023-04-15T05:18:10;5.77;;;2.80;;
15814;SDS011;8008;50.024;8.172;2023-04-15T05:20:39;4.73;;;2.60;;
15814;SDS011;8008;50.024;8.172;2023-04-15T05:23:07;3.83;;;2.70;;
15814;SDS011;8008;50.024;8.172;2023-04-15T05:25:35;5.57;;;2.70;;
15814;SDS011;8008;50.024;8.172;2023-04-15T05:28:03;5.80;;;2.50;;
15814;SDS011;8008;50.024;8.172;2023-04-15T05:30:31;6.57;;;2.70;;
15814;SDS011;8008;50.024;8.172;2023-04-15T05:32:59;4.63;;;2.83;;
15814;SDS011;8008;50.024;8.172;2023-04-15T05:35:27;5.77;;;3.00;;
15814;SDS011;8008;50.024;8.172;2023-04-15T05:37:56;5.83;;;3.30;;
15814;SDS011;8008;50.024;8.172;2023-04-15T05:40:24;8.37;;;4.00;;
15814;SDS011;8008;50.024;8.172;2023-04-15T05:42:52;9.77;;;4.60;;
15814;SDS011;8008;50.024;8.172;2023-04-15T05:45:20;8.53;;;4.73;;
15814;SDS011;8008;50.024;8.172;2023-04-15T05:47:48;5.90;;;3.57;;
15814;SDS011;8008;50.024;8.172;2023-04-15T05:50:19;6.30;;;3.40;;
15814;SDS011;8008;50.024;8.172;2023-04-15T05:52:48;6.23;;;3.50;;
15814;SDS011;8008;50.024;8.172;2023-04-15T05:55:17;6.47;;;3.30;;
15814;SDS011;8008;50.024;8.172;2023-04-15T05:57:45;6.80;;;3.80;;
15814;SDS011;8008;50.024;8.172;2023-04-15T06:00:13;7.00;;;3.30;;
15814;SDS011;8008;50.024;8.172;2023-04-15T06:02:41;5.93;;;3.20;;
15814;SDS011;8008;50.024;8.172;2023-04-15T06:05:10;5.10;;;2.97;;
15814;SDS011;8008;50.024;8.172;2023-04-15T06:07:38;7.37;;;3.30;;
15814;SDS011;8008;50.024;8.172;2023-04-15T06:10:07;8.57;;;3.13;;
15814;SDS011;8008;50.024;8.172;2023-04-15T06:12:37;4.93;;;3.40;;
15814;SDS011;8008;50.024;8.172;2023-04-15T06:15:05;8.40;;;3.70;;
15814;SDS011;8008;50.024;8.172;2023-04-15T06:17:35;4.33;;;3.17;;
15814;SDS011;8008;50.024;8.172;2023-04-15T06:20:03;4.13;;;2.80;;
15814;SDS011;8008;50.024;8.172;2023-04-15T06:22:31;4.77;;;2.77;;
15814;SDS011;8008;50.024;8.172;2023-04-15T06:24:59;4.63;;;2.70;;
15814;SDS011;8008;50.024;8.172;2023-04-15T06:27:27;4.10;;;2.43;;
15814;SDS011;8008;50.024;8.172;2023-04-15T06:29:57;5.37;;;2.70;;
15814;SDS011;8008;50.024;8.172;2023-04-15T06:32:24;4.87;;;2.20;;
15814;SDS011;8008;50.024;8.172;2023-04-15T06:34:53;4.30;;;2.47;;
15814;SDS011;8008;50.024;8.172;2023-04-15T06:37:20;3.63;;;2.30;;
15814;SDS011;8008;50.024;8.172;2023-04-15T06:39:48;5.00;;;2.60;;
15814;SDS011;8008;50.024;8.172;2023-04-15T06:42:16;6.60;;;2.80;;
15814;SDS011;8008;50.024;8.172;2023-04-15T06:44:45;5.70;;;2.83;;
15814;SDS011;8008;50.024;8.172;2023-04-15T06:47:14;5.70;;;2.60;;
15814;SDS011;8008;50.024;8.172;2023-04-15T06:49:42;5.20;;;2.40;;
15814;SDS011;8008;50.024;8.172;2023-04-15T06:52:10;3.00;;;2.20;;
15814;SDS011;8008;50.024;8.172;2023-04-15T06:54:38;4.40;;;2.07;;
15814;SDS011;8008;50.024;8.172;2023-04-15T06:57:06;4.00;;;1.90;;
15814;SDS011;8008;50.024;8.172;2023-04-15T06:59:34;3.23;;;2.10;;
15814;SDS011;8008;50.024;8.172;2023-04-15T07:02:02;2.63;;;2.00;;
15814;SDS011;8008;50.024;8.172;2023-04-15T07:04:31;4.20;;;2.00;;
15814;SDS011;8008;50.024;8.172;2023-04-15T07:06:59;6.33;;;2.30;;
15814;SDS011;8008;50.024;8.172;2023-04-15T07:09:27;5.27;;;2.40;;
15814;SDS011;8008;50.024;8.172;2023-04-15T07:11:55;6.50;;;2.33;;
15814;SDS011;8008;50.024;8.172;2023-04-15T07:14:23;4.70;;;2.30;;
15814;SDS011;8008;50.024;8.172;2023-04-15T07:16:51;5.07;;;2.50;;
15814;SDS011;8008;50.024;8.172;2023-04-15T07:19:19;5.70;;;2.80;;
15814;SDS011;8008;50.024;8.172;2023-04-15T07:21:48;4.23;;;2.40;;
15814;SDS011;8008;50.024;8.172;2023-04-15T07:24:16;5.20;;;2.30;;
15814;SDS011;8008;50.024;8.172;2023-04-15T07:26:45;6.33;;;2.40;;
15814;SDS011;8008;50.024;8.172;2023-04-15T07:29:13;5.13;;;2.20;;
15814;SDS011;8008;50.024;8.172;2023-04-15T07:31:41;3.37;;;1.97;;
15814;SDS011;8008;50.024;8.172;2023-04-15T07:34:09;3.70;;;2.00;;
15814;SDS011;8008;50.024;8.172;2023-04-15T07:36:37;5.13;;;2.43;;
15814;SDS011;8008;50.024;8.172;2023-04-15T07:39:07;3.83;;;1.90;;
15814;SDS011;8008;50.024;8.172;2023-04-15T07:41:35;3.83;;;1.90;;
15814;SDS011;8008;50.024;8.172;2023-04-15T07:44:03;3.70;;;1.90;;
15814;SDS011;8008;50.024;8.172;2023-04-15T07:46:31;3.93;;;2.10;;
15814;SDS011;8008;50.024;8.172;2023-04-15T07:48:59;3.53;;;2.00;;
15814;SDS011;8008;50.024;8.172;2023-04-15T07:51:27;2.93;;;2.10;;
15814;SDS011;8008;50.024;8.172;2023-04-15T07:53:55;3.17;;;1.93;;
15814;SDS011;8008;50.024;8.172;2023-04-15T07:56:25;4.30;;;2.33;;
15814;SDS011;8008;50.024;8.172;2023-04-15T07:58:53;2.65;;;1.80;;
15814;SDS011;8008;50.024;8.172;2023-04-15T08:01:20;2.72;;;2.00;;
15814;SDS011;8008;50.024;8.172;2023-04-15T08:03:48;3.33;;;2.38;;
15814;SDS011;8008;50.024;8.172;2023-04-15T08:06:17;3.13;;;1.98;;
15814;SDS011;8008;50.024;8.172;2023-04-15T08:08:45;5.25;;;2.45;;
15814;SDS011;8008;50.024;8.172;2023-04-15T08:11:13;5.10;;;2.70;;
15814;SDS011;8008;50.024;8.172;2023-04-15T08:13:42;7.70;;;2.95;;
15814;SDS011;8008;50.024;8.172;2023-04-15T08:16:12;7.28;;;3.28;;
15814;SDS011;8008;50.024;8.172;2023-04-15T08:18:43;6.38;;;3.20;;
15814;SDS011;8008;50.024;8.172;2023-04-15T08:21:10;6.35;;;2.97;;
15814;SDS011;8008;50.024;8.172;2023-04-15T08:23:39;7.50;;;3.53;;
15814;SDS011;8008;50.024;8.172;2023-04-15T08:26:07;10.10;;;3.35;;
15814;SDS011;8008;50.024;8.172;2023-04-15T08:28:36;5.35;;;3.30;;
15814;SDS011;8008;50.024;8.172;2023-04-15T08:31:06;5.25;;;2.90;;
15814;SDS011;8008;50.024;8.172;2023-04-15T08:33:34;5.72;;;2.90;;
15814;SDS011;8008;50.024;8.172;2023-04-15T08:36:02;4.88;;;2.80;;
15814;SDS011;8008;50.024;8.172;2023-04-15T08:38:31;6.75;;;2.90;;
15814;SDS011;8008;50.024;8.172;2023-04-15T08:40:59;4.65;;;2.90;;
15814;SDS011;8008;50.024;8.172;2023-04-15T08:43:32;5.60;;;3.15;;
15814;SDS011;8008;50.024;8.172;2023-04-15T08:46:01;6.10;;;2.80;;
15814;SDS011;8008;50.024;8.172;2023-04-15T08:48:33;4.28;;;2.90;;
15814;SDS011;8008;50.024;8.172;2023-04-15T08:51:05;4.00;;;2.60;;
15814;SDS011;8008;50.024;8.172;2023-04-15T08:53:33;4.18;;;2.97;;
15814;SDS011;8008;50.024;8.172;2023-04-15T08:56:02;5.00;;;2.83;;
15814;SDS011;8008;50.024;8.172;2023-04-15T08:58:34;4.28;;;3.10;;
15814;SDS011;8008;50.024;8.172;2023-04-15T09:01:02;5.72;;;2.65;;
15814;SDS011;8008;50.024;8.172;2023-04-15T09:03:30;6.78;;;3.25;;
15814;SDS011;8008;50.024;8.172;2023-04-15T09:06:02;4.60;;;2.92;;
15814;SDS011;8008;50.024;8.172;2023-04-15T09:08:30;5.03;;;2.75;;
15814;SDS011;8008;50.024;8.172;2023-04-15T09:10:59;7.18;;;2.70;;
15814;SDS011;8008;50.024;8.172;2023-04-15T09:13:27;4.85;;;2.58;;
15814;SDS011;8008;50.024;8.172;2023-04-15T09:15:55;4.47;;;2.47;;
15814;SDS011;8008;50.024;8.172;2023-04-15T09:18:27;4.85;;;2.50;;
15814;SDS011;8008;50.024;8.172;2023-04-15T09:21:04;3.50;;;2.05;;
15814;SDS011;8008;50.024;8.172;2023-04-15T09:23:34;2.35;;;1.63;;
15814;SDS011;8008;50.024;8.172;2023-04-15T09:26:03;6.43;;;1.35;;
15814;SDS011;8008;50.024;8.172;2023-04-15T09:28:31;2.47;;;1.30;;
15814;SDS011;8008;50.024;8.172;2023-04-15T09:31:01;3.30;;;1.33;;
15814;SDS011;8008;50.024;8.172;2023-04-15T09:33:29;1.38;;;1.17;;
15814;SDS011;8008;50.024;8.172;2023-04-15T09:35:57;2.17;;;1.30;;
15814;SDS011;8008;50.024;8.172;2023-04-15T09:38:28;3.03;;;1.30;;
15814;SDS011;8008;50.024;8.172;2023-04-15T09:40:56;3.55;;;1.10;;
15814;SDS011;8008;50.024;8.172;2023-04-15T09:43:35;2.97;;;1.10;;
15814;SDS011;8008;50.024;8.172;2023-04-15T09:46:04;3.75;;;0.85;;
15814;SDS011;8008;50.024;8.172;2023-04-15T09:48:32;2.85;;;1.10;;
15814;SDS011;8008;50.024;8.172;2023-04-15T09:51:00;2.35;;;0.90;;
15814;SDS011;8008;50.024;8.172;2023-04-15T09:53:31;2.55;;;1.30;;
15814;SDS011;8008;50.024;8.172;2023-04-15T09:56:01;1.33;;;1.23;;
15814;SDS011;8008;50.024;8.172;2023-04-15T09:58:30;1.98;;;1.10;;
15814;SDS011;8008;50.024;8.172;2023-04-15T10:00:59;1.63;;;1.10;;
15814;SDS011;8008;50.024;8.172;2023-04-15T10:03:29;1.83;;;1.00;;
15814;SDS011;8008;50.024;8.172;2023-04-15T10:05:59;2.53;;;1.30;;
15814;SDS011;8008;50.024;8.172;2023-04-15T10:08:30;2.20;;;1.17;;
15814;SDS011;8008;50.024;8.172;2023-04-15T10:11:00;3.88;;;1.35;;
15814;SDS011;8008;50.024;8.172;2023-04-15T10:13:29;2.05;;;1.30;;
15814;SDS011;8008;50.024;8.172;2023-04-15T10:16:03;2.35;;;1.27;;
15814;SDS011;8008;50.024;8.172;2023-04-15T10:18:33;3.25;;;1.65;;
15814;SDS011;8008;50.024;8.172;2023-04-15T10:21:04;3.28;;;1.75;;
15814;SDS011;8008;50.024;8.172;2023-04-15T10:23:34;4.25;;;1.63;;
15814;SDS011;8008;50.024;8.172;2023-04-15T10:26:02;3.80;;;1.73;;
15814;SDS011;8008;50.024;8.172;2023-04-15T10:28:31;4.63;;;1.67;;
15814;SDS011;8008;50.024;8.172;2023-04-15T10:30:59;2.67;;;1.48;;
15814;SDS011;8008;50.024;8.172;2023-04-15T10:33:28;1.90;;;1.20;;
15814;SDS011;8008;50.024;8.172;2023-04-15T10:35:57;2.00;;;1.45;;
15814;SDS011;8008;50.024;8.172;2023-04-15T10:38:37;2.38;;;1.48;;
15814;SDS011;8008;50.024;8.172;2023-04-15T10:41:13;1.88;;;1.30;;
15814;SDS011;8008;50.024;8.172;2023-04-15T10:43:49;2.88;;;1.27;;
15814;SDS011;8008;50.024;8.172;2023-04-15T10:46:20;2.10;;;1.40;;
15814;SDS011;8008;50.024;8.172;2023-04-15T10:48:50;2.25;;;1.40;;
15814;SDS011;8008;50.024;8.172;2023-04-15T10:51:26;3.63;;;1.58;;
15814;SDS011;8008;50.024;8.172;2023-04-15T10:53:57;2.08;;;1.40;;
15814;SDS011;8008;50.024;8.172;2023-04-15T10:56:29;3.15;;;1.25;;
15814;SDS011;8008;50.024;8.172;2023-04-15T10:58:57;3.30;;;1.42;;
15814;SDS011;8008;50.024;8.172;2023-04-15T11:07:32;2.85;;;1.67;;
15814;SDS011;8008;50.024;8.172;2023-04-15T11:10:02;3.58;;;1.70;;
15814;SDS011;8008;50.024;8.172;2023-04-15T11:12:34;4.40;;;1.88;;
15814;SDS011;8008;50.024;8.172;2023-04-15T11:17:54;3.58;;;1.50;;
15814;SDS011;8008;50.024;8.172;2023-04-15T11:20:22;2.33;;;1.40;;
15814;SDS011;8008;50.024;8.172;2023-04-15T11:22:51;1.02;;;0.93;;
15814;SDS011;8008;50.024;8.172;2023-04-15T11:25:41;1.10;;;1.00;;
15814;SDS011;8008;50.024;8.172;2023-04-15T11:28:10;1.42;;;0.90;;
15814;SDS011;8008;50.024;8.172;2023-04-15T11:30:38;1.73;;;1.00;;
15814;SDS011;8008;50.024;8.172;2023-04-15T11:33:08;1.88;;;0.90;;
15814;SDS011;8008;50.024;8.172;2023-04-15T11:35:39;2.92;;;1.10;;
15814;SDS011;8008;50.024;8.172;2023-04-15T11:38:08;1.65;;;1.30;;
15814;SDS011;8008;50.024;8.172;2023-04-15T11:40:38;2.70;;;1.40;;
15814;SDS011;8008;50.024;8.172;2023-04-15T11:43:09;3.58;;;1.67;;
15814;SDS011;8008;50.024;8.172;2023-04-15T11:45:46;2.65;;;1.20;;
15814;SDS011;8008;50.024;8.172;2023-04-15T11:48:16;1.75;;;1.10;;
15814;SDS011;8008;50.024;8.172;2023-04-15T11:50:44;1.58;;;0.80;;
15814;SDS011;8008;50.024;8.172;2023-04-15T11:53:12;1.73;;;0.80;;
15814;SDS011;8008;50.024;8.172;2023-04-15T11:55:41;0.95;;;0.85;;
15814;SDS011;8008;50.024;8.172;2023-04-15T11:58:14;2.38;;;1.10;;
15814;SDS011;8008;50.024;8.172;2023-04-15T12:00:46;2.05;;;1.00;;
15814;SDS011;8008;50.024;8.172;2023-04-15T12:03:21;0.90;;;0.70;;
15814;SDS011;8008;50.024;8.172;2023-04-15T12:06:10;1.50;;;0.98;;
15814;SDS011;8008;50.024;8.172;2023-04-15T12:08:49;1.40;;;0.90;;
15814;SDS011;8008;50.024;8.172;2023-04-15T12:11:38;1.20;;;0.93;;
15814;SDS011;8008;50.024;8.172;2023-04-15T12:14:15;1.67;;;0.90;;
15814;SDS011;8008;50.024;8.172;2023-04-15T12:16:46;1.27;;;0.70;;
15814;SDS011;8008;50.024;8.172;2023-04-15T12:19:17;1.02;;;0.80;;
15814;SDS011;8008;50.024;8.172;2023-04-15T12:21:49;1.20;;;1.10;;
15814;SDS011;8008;50.024;8.172;2023-04-15T12:24:20;2.83;;;1.60;;
15814;SDS011;8008;50.024;8.172;2023-04-15T12:26:49;1.23;;;1.00;;
15814;SDS011;8008;50.024;8.172;2023-04-15T12:29:24;1.25;;;0.80;;
15814;SDS011;8008;50.024;8.172;2023-04-15T12:31:53;0.60;;;0.60;;
15814;SDS011;8008;50.024;8.172;2023-04-15T12:34:25;1.50;;;1.02;;
15814;SDS011;8008;50.024;8.172;2023-04-15T12:36:55;1.65;;;0.90;;
15814;SDS011;8008;50.024;8.172;2023-04-15T12:39:24;0.82;;;0.82;;
15814;SDS011;8008;50.024;8.172;2023-04-15T12:41:56;2.70;;;1.20;;
15814;SDS011;8008;50.024;8.172;2023-04-15T12:44:27;1.58;;;1.05;;
15814;SDS011;8008;50.024;8.172;2023-04-15T12:46:55;1.27;;;1.05;;
15814;SDS011;8008;50.024;8.172;2023-04-15T12:49:23;1.05;;;1.05;;
15814;SDS011;8008;50.024;8.172;2023-04-15T12:51:52;2.45;;;1.50;;
15814;SDS011;8008;50.024;8.172;2023-04-15T12:54:22;2.50;;;1.38;;
15814;SDS011;8008;50.024;8.172;2023-04-15T12:56:50;1.52;;;1.33;;
15814;SDS011;8008;50.024;8.172;2023-04-15T12:59:18;2.88;;;1.35;;
15814;SDS011;8008;50.024;8.172;2023-04-15T13:01:48;1.98;;;1.38;;
15814;SDS011;8008;50.024;8.172;2023-04-15T13:04:18;1.90;;;1.20;;
15814;SDS011;8008;50.024;8.172;2023-04-15T13:06:46;2.45;;;1.60;;
15814;SDS011;8008;50.024;8.172;2023-04-15T13:09:14;3.20;;;1.50;;
15814;SDS011;8008;50.024;8.172;2023-04-15T13:11:42;1.40;;;1.20;;
15814;SDS011;8008;50.024;8.172;2023-04-15T13:14:10;1.27;;;1.20;;
15814;SDS011;8008;50.024;8.172;2023-04-15T13:16:38;1.00;;;1.00;;
15814;SDS011;8008;50.024;8.172;2023-04-15T13:19:07;1.30;;;0.82;;
15814;SDS011;8008;50.024;8.172;2023-04-15T13:21:35;1.48;;;1.10;;
15814;SDS011;8008;50.024;8.172;2023-04-15T13:24:03;0.93;;;0.93;;
15814;SDS011;8008;50.024;8.172;2023-04-15T13:26:32;0.80;;;0.77;;
15814;SDS011;8008;50.024;8.172;2023-04-15T13:29:02;1.20;;;0.95;;
15814;SDS011;8008;50.024;8.172;2023-04-15T13:31:30;1.08;;;1.05;;
15814;SDS011;8008;50.024;8.172;2023-04-15T13:33:58;1.00;;;1.00;;
15814;SDS011;8008;50.024;8.172;2023-04-15T13:36:27;1.20;;;0.93;;
15814;SDS011;8008;50.024;8.172;2023-04-15T13:38:55;1.63;;;1.33;;
15814;SDS011;8008;50.024;8.172;2023-04-15T13:41:25;2.25;;;1.00;;
15814;SDS011;8008;50.024;8.172;2023-04-15T13:43:53;1.30;;;1.20;;
15814;SDS011;8008;50.024;8.172;2023-04-15T13:46:20;0.90;;;0.90;;
15814;SDS011;8008;50.024;8.172;2023-04-15T13:48:48;1.17;;;1.08;;
15814;SDS011;8008;50.024;8.172;2023-04-15T13:51:16;1.80;;;0.90;;
15814;SDS011;8008;50.024;8.172;2023-04-15T13:53:45;1.73;;;1.17;;
15814;SDS011;8008;50.024;8.172;2023-04-15T13:56:13;2.88;;;1.10;;
15814;SDS011;8008;50.024;8.172;2023-04-15T13:58:41;2.05;;;1.25;;
15814;SDS011;8008;50.024;8.172;2023-04-15T14:01:09;0.85;;;0.85;;
15814;SDS011;8008;50.024;8.172;2023-04-15T14:03:37;1.15;;;0.95;;
15814;SDS011;8008;50.024;8.172;2023-04-15T14:06:05;0.90;;;0.90;;
15814;SDS011;8008;50.024;8.172;2023-04-15T14:08:33;1.77;;;1.20;;
15814;SDS011;8008;50.024;8.172;2023-04-15T14:11:03;2.65;;;1.30;;
15814;SDS011;8008;50.024;8.172;2023-04-15T14:13:30;3.22;;;1.70;;
15814;SDS011;8008;50.024;8.172;2023-04-15T14:15:58;1.13;;;1.10;;
15814;SDS011;8008;50.024;8.172;2023-04-15T14:18:26;1.08;;;1.02;;
15814;SDS011;8008;50.024;8.172;2023-04-15T14:20:55;1.30;;;1.20;;
15814;SDS011;8008;50.024;8.172;2023-04-15T14:23:23;1.38;;;1.27;;
15814;SDS011;8008;50.024;8.172;2023-04-15T14:25:51;1.38;;;1.25;;
15814;SDS011;8008;50.024;8.172;2023-04-15T14:28:21;2.13;;;1.70;;
15814;SDS011;8008;50.024;8.172;2023-04-15T14:30:48;1.40;;;1.30;;
15814;SDS011;8008;50.024;8.172;2023-04-15T14:33:16;4.22;;;2.10;;
15814;SDS011;8008;50.024;8.172;2023-04-15T14:35:44;2.50;;;2.03;;
15814;SDS011;8008;50.024;8.172;2023-04-15T14:38:12;2.88;;;2.08;;
15814;SDS011;8008;50.024;8.172;2023-04-15T14:40:40;2.08;;;1.50;;
15814;SDS011;8008;50.024;8.172;2023-04-15T14:43:08;3.05;;;1.85;;
15814;SDS011;8008;50.024;8.172;2023-04-15T14:45:37;2.85;;;2.05;;
15814;SDS011;8008;50.024;8.172;2023-04-15T14:48:10;1.98;;;1.85;;
15814;SDS011;8008;50.024;8.172;2023-04-15T14:50:38;2.13;;;1.90;;
15814;SDS011;8008;50.024;8.172;2023-04-15T14:53:06;2.33;;;2.13;;
15814;SDS011;8008;50.024;8.172;2023-04-15T14:55:35;6.45;;;4.13;;
15814;SDS011;8008;50.024;8.172;2023-04-15T14:58:03;2.38;;;2.17;;
15814;SDS011;8008;50.024;8.172;2023-04-15T15:00:33;3.72;;;3.17;;
15814;SDS011;8008;50.024;8.172;2023-04-15T15:03:05;3.00;;;2.38;;
15814;SDS011;8008;50.024;8.172;2023-04-15T15:05:38;2.40;;;2.20;;
15814;SDS011;8008;50.024;8.172;2023-04-15T15:08:06;3.33;;;2.70;;
15814;SDS011;8008;50.024;8.172;2023-04-15T15:10:35;4.35;;;2.88;;
15814;SDS011;8008;50.024;8.172;2023-04-15T15:13:15;7.72;;;3.30;;
15814;SDS011;8008;50.024;8.172;2023-04-15T15:15:43;7.65;;;3.33;;
15814;SDS011;8008;50.024;8.172;2023-04-15T15:18:15;3.72;;;2.15;;
15814;SDS011;8008;50.024;8.172;2023-04-15T15:20:45;3.67;;;2.50;;
15814;SDS011;8008;50.024;8.172;2023-04-15T15:23:13;2.90;;;2.50;;
15814;SDS011;8008;50.024;8.172;2023-04-15T15:25:41;7.57;;;3.88;;
15814;SDS011;8008;50.024;8.172;2023-04-15T15:28:09;4.00;;;2.60;;
15814;SDS011;8008;50.024;8.172;2023-04-15T15:30:37;16.42;;;7.78;;
15814;SDS011;8008;50.024;8.172;2023-04-15T15:33:05;4.35;;;3.35;;
15814;SDS011;8008;50.024;8.172;2023-04-15T15:35:34;31.30;;;15.38;;
15814;SDS011;8008;50.024;8.172;2023-04-15T15:38:02;4.40;;;3.95;;
15814;SDS011;8008;50.024;8.172;2023-04-15T15:40:31;6.15;;;5.10;;
15814;SDS011;8008;50.024;8.172;2023-04-15T15:42:59;4.70;;;4.10;;
15814;SDS011;8008;50.024;8.172;2023-04-15T15:45:27;2.80;;;2.53;;
15814;SDS011;8008;50.024;8.172;2023-04-15T15:47:56;2.85;;;2.63;;
15814;SDS011;8008;50.024;8.172;2023-04-15T15:50:25;3.67;;;2.92;;
15814;SDS011;8008;50.024;8.172;2023-04-15T15:52:54;2.58;;;2.38;;
15814;SDS011;8008;50.024;8.172;2023-04-15T15:55:23;5.07;;;2.90;;
15814;SDS011;8008;50.024;8.172;2023-04-15T15:57:52;4.15;;;2.97;;
15814;SDS011;8008;50.024;8.172;2023-04-15T16:00:20;6.22;;;3.80;;
15814;SDS011;8008;50.024;8.172;2023-04-15T16:02:48;3.45;;;2.65;;
15814;SDS011;8008;50.024;8.172;2023-04-15T16:05:32;4.78;;;2.70;;
15814;SDS011;8008;50.024;8.172;2023-04-15T16:08:02;3.28;;;2.92;;
15814;SDS011;8008;50.024;8.172;2023-04-15T16:10:30;2.80;;;2.60;;
15814;SDS011;8008;50.024;8.172;2023-04-15T16:12:58;3.58;;;2.67;;
15814;SDS011;8008;50.024;8.172;2023-04-15T16:15:25;4.07;;;2.40;;
15814;SDS011;8008;50.024;8.172;2023-04-15T16:17:53;2.95;;;2.70;;
15814;SDS011;8008;50.024;8.172;2023-04-15T16:20:22;3.10;;;2.40;;
15814;SDS011;8008;50.024;8.172;2023-04-15T16:22:49;2.63;;;2.30;;
15814;SDS011;8008;50.024;8.172;2023-04-15T16:25:19;2.97;;;2.50;;
15814;SDS011;8008;50.024;8.172;2023-04-15T16:27:47;4.70;;;3.25;;
15814;SDS011;8008;50.024;8.172;2023-04-15T16:30:26;2.53;;;2.30;;
15814;SDS011;8008;50.024;8.172;2023-04-15T16:32:55;4.78;;;2.53;;
15814;SDS011;8008;50.024;8.172;2023-04-15T16:35:23;2.75;;;2.20;;
15814;SDS011;8008;50.024;8.172;2023-04-15T16:37:51;2.58;;;2.33;;
15814;SDS011;8008;50.024;8.172;2023-04-15T16:40:20;4.57;;;2.83;;
15814;SDS011;8008;50.024;8.172;2023-04-15T16:42:48;5.45;;;3.70;;
15814;SDS011;8008;50.024;8.172;2023-04-15T16:45:16;3.38;;;2.60;;
15814;SDS011;8008;50.024;8.172;2023-04-15T16:47:44;2.95;;;2.50;;
15814;SDS011;8008;50.024;8.172;2023-04-15T16:50:12;3.17;;;2.10;;
15814;SDS011;8008;50.024;8.172;2023-04-15T16:52:40;4.38;;;3.10;;
15814;SDS011;8008;50.024;8.172;2023-04-15T16:55:08;3.45;;;2.65;;
15814;SDS011;8008;50.024;8.172;2023-04-15T16:57:38;3.08;;;2.38;;
15814;SDS011;8008;50.024;8.172;2023-04-15T17:00:25;3.60;;;2.20;;
15814;SDS011;8008;50.024;8.172;2023-04-15T17:02:54;3.42;;;2.35;;
15814;SDS011;8008;50.024;8.172;2023-04-15T17:05:22;3.25;;;2.50;;
15814;SDS011;8008;50.024;8.172;2023-04-15T17:07:52;4.15;;;2.83;;
15814;SDS011;8008;50.024;8.172;2023-04-15T17:10:20;2.83;;;2.63;;
15814;SDS011;8008;50.024;8.172;2023-04-15T17:12:50;2.53;;;2.30;;
15814;SDS011;8008;50.024;8.172;2023-04-15T17:15:18;2.78;;;2.53;;
15814;SDS011;8008;50.024;8.172;2023-04-15T17:17:46;2.97;;;2.28;;
15814;SDS011;8008;50.024;8.172;2023-04-15T17:20:14;3.38;;;2.80;;
15814;SDS011;8008;50.024;8.172;2023-04-15T17:22:43;2.90;;;2.60;;
15814;SDS011;8008;50.024;8.172;2023-04-15T17:25:11;3.53;;;3.00;;
15814;SDS011;8008;50.024;8.172;2023-04-15T17:27:40;4.43;;;3.33;;
15814;SDS011;8008;50.024;8.172;2023-04-15T17:30:09;3.95;;;3.20;;
15814;SDS011;8008;50.024;8.172;2023-04-15T17:32:37;3.80;;;3.13;;
15814;SDS011;8008;50.024;8.172;2023-04-15T17:35:06;3.88;;;3.20;;
15814;SDS011;8008;50.024;8.172;2023-04-15T17:37:34;3.00;;;2.70;;
15814;SDS011;8008;50.024;8.172;2023-04-15T17:40:02;6.65;;;3.25;;
15814;SDS011;8008;50.024;8.172;2023-04-15T17:42:34;3.65;;;3.13;;
15814;SDS011;8008;50.024;8.172;2023-04-15T17:45:02;4.25;;;3.33;;
15814;SDS011;8008;50.024;8.172;2023-04-15T17:47:31;3.38;;;3.08;;
15814;SDS011;8008;50.024;8.172;2023-04-15T17:49:59;3.50;;;3.20;;
15814;SDS011;8008;50.024;8.172;2023-04-15T17:52:27;3.72;;;3.30;;
15814;SDS011;8008;50.024;8.172;2023-04-15T17:54:55;6.28;;;3.75;;
15814;SDS011;8008;50.024;8.172;2023-04-15T17:57:22;5.30;;;3.47;;
15814;SDS011;8008;50.024;8.172;2023-04-15T17:59:51;4.10;;;3.40;;
15814;SDS011;8008;50.024;8.172;2023-04-15T18:02:19;3.72;;;3.20;;
15814;SDS011;8008;50.024;8.172;2023-04-15T18:04:48;4.47;;;3.65;;
15814;SDS011;8008;50.024;8.172;2023-04-15T18:07:16;5.03;;;3.80;;
15814;SDS011;8008;50.024;8.172;2023-04-15T18:09:44;5.15;;;4.30;;
15814;SDS011;8008;50.024;8.172;2023-04-15T18:12:12;4.40;;;3.38;;
15814;SDS011;8008;50.024;8.172;2023-04-15T18:14:40;4.28;;;3.67;;
15814;SDS011;8008;50.024;8.172;2023-04-15T18:17:09;4.05;;;3.58;;
15814;SDS011;8008;50.024;8.172;2023-04-15T18:19:38;4.38;;;3.83;;
15814;SDS011;8008;50.024;8.172;2023-04-15T18:22:08;4.28;;;3.78;;